Time;durP1;ratioP1;P1;durP2;ratioP2;P2;SDS_P1;SDS_P2;PMS_P1;PMS_P2;Temp;Humidity;BMP_temperature;BMP_pressure;BME280_temperature;BME280_humidity;BME280_pressure;Samples;Min_cycle;Max_cycle;Signal;HPM_P1;HPM_P2
2022/05/08 00:00:02;;;;;;;10.10;2.92;;;13.10;58.90;;;;;;4981108;28;20061;-86
2022/05/08 00:02:28;;;;;;;8.73;3.17;;;13.00;58.80;;;;;;5006805;28;20492;-86
2022/05/08 00:04:54;;;;;;;9.85;2.63;;;13.10;58.80;;;;;;5002943;28;20046;-86
2022/05/08 00:07:21;;;;;;;8.32;2.70;;;13.10;58.70;;;;;;4998698;28;20085;-86
2022/05/08 00:09:48;;;;;;;8.30;3.40;;;13.00;58.60;;;;;;4991586;28;20072;-86
2022/05/08 00:12:15;;;;;;;8.90;3.10;;;13.10;58.60;;;;;;4999665;28;20050;-87
2022/05/08 00:14:41;;;;;;;11.63;3.10;;;13.00;58.50;;;;;;4998692;28;20054;-86
2022/05/08 00:17:11;;;;;;;7.85;3.10;;;13.00;58.40;;;;;;4998692;28;20037;-87
2022/05/08 00:19:42;;;;;;;12.55;3.97;;;13.00;58.40;;;;;;4997952;28;20046;-86
2022/05/08 00:22:07;;;;;;;8.90;2.88;;;13.00;58.30;;;;;;5002381;28;20103;-87
2022/05/08 00:24:33;;;;;;;10.65;3.78;;;12.90;58.20;;;;;;5014172;28;20049;-86
2022/05/08 00:26:59;;;;;;;8.48;3.05;;;13.00;58.30;;;;;;4980043;28;20053;-87
2022/05/08 00:29:25;;;;;;;11.48;3.58;;;12.90;58.20;;;;;;4997898;28;20038;-87
2022/05/08 00:31:50;;;;;;;7.07;2.80;;;12.80;58.20;;;;;;5005357;28;20398;-86
2022/05/08 00:34:16;;;;;;;8.48;3.25;;;12.90;58.20;;;;;;4998756;28;20128;-86
2022/05/08 00:36:42;;;;;;;11.00;3.13;;;12.90;58.20;;;;;;4997156;28;20389;-87
2022/05/08 00:39:08;;;;;;;12.20;3.05;;;12.80;58.10;;;;;;4979884;28;20058;-85
2022/05/08 00:41:33;;;;;;;12.38;2.83;;;12.80;58.50;;;;;;5000828;28;20042;-86
2022/05/08 00:43:59;;;;;;;10.50;3.00;;;12.80;58.10;;;;;;5001712;28;20085;-87
2022/05/08 00:46:24;;;;;;;7.15;2.83;;;12.80;58.10;;;;;;4980803;28;20071;-86
2022/05/08 00:48:50;;;;;;;6.90;2.65;;;12.70;58.10;;;;;;5013432;28;20052;-86
2022/05/08 00:51:17;;;;;;;8.77;3.38;;;12.70;58.10;;;;;;4997918;28;20129;-86
2022/05/08 00:53:46;;;;;;;9.90;3.55;;;12.70;58.10;;;;;;5003449;28;20042;-87
2022/05/08 00:56:14;;;;;;;9.20;3.28;;;12.70;58.10;;;;;;5016527;28;20045;-86
2022/05/08 00:58:41;;;;;;;7.15;2.78;;;12.60;58.10;;;;;;4997785;28;20045;-87
2022/05/08 01:01:09;;;;;;;12.90;3.60;;;12.60;58.10;;;;;;4997000;28;20042;-86
2022/05/08 01:03:35;;;;;;;9.50;2.90;;;12.60;58.10;;;;;;5004383;28;20506;-87
2022/05/08 01:06:08;;;;;;;11.85;2.72;;;12.60;58.10;;;;;;5015600;28;20042;-87
2022/05/08 01:08:36;;;;;;;10.55;3.20;;;12.50;58.00;;;;;;4996764;28;20416;-86
2022/05/08 01:11:03;;;;;;;12.35;3.15;;;12.50;58.10;;;;;;4998524;28;20138;-87
2022/05/08 01:13:29;;;;;;;12.05;3.35;;;12.50;58.10;;;;;;4996139;28;20489;-86
2022/05/08 01:15:55;;;;;;;11.00;3.35;;;12.50;58.10;;;;;;4998235;28;20146;-86
2022/05/08 01:18:21;;;;;;;9.15;3.00;;;12.40;58.00;;;;;;4996330;28;20509;-86
2022/05/08 01:20:47;;;;;;;9.10;2.80;;;12.40;58.00;;;;;;4996963;28;20046;-86
2022/05/08 01:23:23;;;;;;;9.38;2.88;;;12.30;58.00;;;;;;5005093;28;20049;-86
2022/05/08 01:25:50;;;;;;;11.85;3.80;;;12.30;58.00;;;;;;5014814;28;20045;-86
2022/05/08 01:28:16;;;;;;;8.65;3.53;;;12.30;58.10;;;;;;5003027;28;20060;-85
2022/05/08 01:30:43;;;;;;;11.43;3.83;;;12.30;58.10;;;;;;4997223;28;20507;-86
2022/05/08 01:33:10;;;;;;;11.85;3.78;;;12.20;58.10;;;;;;5002120;28;20046;-85
2022/05/08 01:35:36;;;;;;;8.65;3.10;;;12.20;58.10;;;;;;4996855;28;20096;-87
2022/05/08 01:38:03;;;;;;;9.25;2.90;;;12.20;58.10;;;;;;5003385;28;20033;-87
2022/05/08 01:40:30;;;;;;;7.78;2.53;;;12.10;58.10;;;;;;5005339;28;20045;-87
2022/05/08 01:42:56;;;;;;;9.15;3.15;;;12.10;58.10;;;;;;5005769;28;20046;-87
2022/05/08 01:45:22;;;;;;;13.18;3.28;;;12.10;58.10;;;;;;4996461;28;20042;-86
2022/05/08 01:50:34;;;;;;;8.75;2.75;;;12.00;58.10;;;;;;4987163;28;20572;-86
2022/05/08 01:53:00;;;;;;;8.68;3.13;;;12.00;58.10;;;;;;4998642;28;20045;-88
2022/05/08 01:55:26;;;;;;;11.30;3.40;;;12.00;58.10;;;;;;5013029;28;20410;-87
2022/05/08 01:57:53;;;;;;;10.90;3.10;;;11.90;58.00;;;;;;5010020;28;20120;-87
2022/05/08 02:00:19;;;;;;;8.77;3.17;;;11.90;58.00;;;;;;4997057;28;20431;-87
2022/05/08 02:02:48;;;;;;;11.30;3.20;;;11.90;58.00;;;;;;4997792;28;20105;-87
2022/05/08 02:05:19;;;;;;;8.75;2.70;;;11.80;58.00;;;;;;4995997;28;20081;-86
2022/05/08 02:07:45;;;;;;;7.68;2.72;;;11.80;58.00;;;;;;4997021;28;20047;-86
2022/05/08 02:10:12;;;;;;;10.52;2.92;;;11.70;58.00;;;;;;4995798;28;20058;-86
2022/05/08 02:12:39;;;;;;;6.78;2.72;;;11.70;58.10;;;;;;4995286;28;20482;-86
2022/05/08 02:15:07;;;;;;;9.50;3.28;;;11.70;58.10;;;;;;4995503;28;20050;-86
2022/05/08 02:17:32;;;;;;;7.45;2.63;;;11.70;58.20;;;;;;4993091;28;20038;-87
2022/05/08 02:19:59;;;;;;;10.80;3.08;;;11.70;58.20;;;;;;4995274;28;20097;-86
2022/05/08 02:22:25;;;;;;;7.05;2.80;;;11.60;58.10;;;;;;4995265;28;20055;-86
2022/05/08 02:24:51;;;;;;;7.88;2.70;;;11.60;58.10;;;;;;4994208;28;20041;-86
2022/05/08 02:27:17;;;;;;;7.00;2.47;;;11.60;58.20;;;;;;4994786;28;20043;-87
2022/05/08 02:29:46;;;;;;;8.40;3.22;;;11.50;58.20;;;;;;4995093;28;20046;-86
2022/05/08 02:32:12;;;;;;;13.48;3.50;;;11.50;58.30;;;;;;4995327;28;20129;-86
2022/05/08 02:34:38;;;;;;;7.95;2.88;;;11.50;58.30;;;;;;4995038;28;20057;-86
2022/05/08 02:37:04;;;;;;;9.55;3.42;;;11.40;58.70;;;;;;4994869;28;20080;-86
2022/05/08 02:39:30;;;;;;;8.07;3.08;;;11.40;58.30;;;;;;4994811;28;20397;-86
2022/05/08 02:41:55;;;;;;;10.02;2.67;;;11.40;58.30;;;;;;4995255;28;20046;-87
2022/05/08 02:44:21;;;;;;;10.32;3.05;;;11.40;58.30;;;;;;4994896;28;20478;-86
2022/05/08 02:46:47;;;;;;;10.15;2.63;;;11.30;58.30;;;;;;4993574;28;20116;-86
2022/05/08 02:49:12;;;;;;;8.30;3.53;;;11.30;58.30;;;;;;4994974;28;20065;-85
2022/05/08 02:51:38;;;;;;;8.77;3.10;;;11.30;58.30;;;;;;4994948;28;20141;-86
2022/05/08 02:54:03;;;;;;;9.05;2.78;;;11.30;58.30;;;;;;4994612;28;20039;-87
2022/05/08 02:59:14;;;;;;;11.95;3.28;;;11.10;58.30;;;;;;5009163;28;20054;-86
2022/05/08 03:01:40;;;;;;;6.15;2.83;;;11.20;58.30;;;;;;4994537;28;20086;-87
2022/05/08 03:04:06;;;;;;;8.02;3.05;;;11.10;58.30;;;;;;4994428;28;20437;-87
2022/05/08 03:06:31;;;;;;;8.80;2.78;;;11.10;58.40;;;;;;4994962;28;20074;-87
2022/05/08 03:08:58;;;;;;;6.40;2.05;;;11.10;58.40;;;;;;4994511;28;20112;-87
2022/05/08 03:11:26;;;;;;;6.65;2.60;;;11.10;58.40;;;;;;4992594;28;20054;-87
2022/05/08 03:13:53;;;;;;;7.85;2.30;;;11.10;58.40;;;;;;4994128;28;20121;-86
2022/05/08 03:16:19;;;;;;;7.95;2.50;;;11.00;58.30;;;;;;4994702;28;20069;-86
2022/05/08 03:18:45;;;;;;;5.55;2.42;;;11.00;58.30;;;;;;4993924;28;20393;-87
2022/05/08 03:21:13;;;;;;;8.80;2.83;;;11.00;58.40;;;;;;4994823;28;20041;-86
2022/05/08 03:23:40;;;;;;;8.70;2.28;;;11.00;58.30;;;;;;4994395;28;20046;-85
2022/05/08 03:26:07;;;;;;;7.65;2.20;;;11.00;58.70;;;;;;4993569;28;20053;-86
2022/05/08 03:28:33;;;;;;;6.57;2.08;;;10.90;58.30;;;;;;4993723;28;20078;-86
2022/05/08 03:31:00;;;;;;;6.25;2.88;;;10.90;58.30;;;;;;4993649;28;20050;-87
2022/05/08 03:33:26;;;;;;;7.10;2.45;;;10.90;58.30;;;;;;4993944;28;20050;-87
2022/05/08 03:35:52;;;;;;;5.00;2.20;;;10.90;58.40;;;;;;4992782;28;20085;-86
2022/05/08 03:38:20;;;;;;;7.30;2.22;;;10.80;58.30;;;;;;4993277;28;20051;-86
2022/05/08 03:40:46;;;;;;;6.43;2.38;;;10.80;58.30;;;;;;4994291;28;20129;-87
2022/05/08 03:43:12;;;;;;;8.20;2.50;;;10.80;58.30;;;;;;4993327;28;20185;-86
2022/05/08 03:45:37;;;;;;;5.53;2.10;;;10.80;58.40;;;;;;4993960;28;20528;-87
2022/05/08 03:48:04;;;;;;;5.47;1.92;;;10.80;58.40;;;;;;4994475;28;20481;-87
2022/05/08 03:50:30;;;;;;;5.32;2.00;;;10.70;58.40;;;;;;4993774;28;20121;-86
2022/05/08 03:52:57;;;;;;;5.55;1.80;;;10.60;58.40;;;;;;4994775;28;20128;-87
2022/05/08 03:55:23;;;;;;;7.80;2.53;;;10.60;58.40;;;;;;4992967;28;20043;-87
2022/05/08 03:57:48;;;;;;;6.28;2.58;;;10.60;58.40;;;;;;4993880;28;20073;-86
2022/05/08 04:00:15;;;;;;;8.55;2.53;;;11.10;58.70;;;;;;4993512;28;20031;-86
2022/05/08 04:02:41;;;;;;;8.60;2.53;;;10.60;58.50;;;;;;4992920;28;20046;-86
2022/05/08 04:05:08;;;;;;;6.47;2.42;;;10.60;58.50;;;;;;4994221;28;20045;-87
2022/05/08 04:07:34;;;;;;;7.20;2.58;;;10.50;58.50;;;;;;4993485;28;20375;-87
2022/05/08 04:09:59;;;;;;;8.77;2.15;;;10.50;58.60;;;;;;4994114;28;20038;-87
2022/05/08 04:12:26;;;;;;;5.75;2.33;;;10.50;58.60;;;;;;4994119;28;20500;-87
2022/05/08 04:14:52;;;;;;;9.57;2.85;;;10.50;58.60;;;;;;4993726;28;20043;-87
2022/05/08 04:17:18;;;;;;;8.25;2.55;;;10.50;58.70;;;;;;4994771;28;20109;-87
2022/05/08 04:19:46;;;;;;;5.72;2.20;;;10.50;58.70;;;;;;4994016;28;20062;-87
2022/05/08 04:24:57;;;;;;;5.82;2.40;;;10.40;58.70;;;;;;4993922;28;20047;-87
2022/05/08 04:27:23;;;;;;;7.70;2.10;;;10.40;58.70;;;;;;4993212;28;20049;-87
2022/05/08 04:29:48;;;;;;;7.93;2.60;;;10.40;58.70;;;;;;4994561;28;20034;-87
2022/05/08 04:32:14;;;;;;;8.60;2.58;;;10.40;58.80;;;;;;4994555;28;20042;-87
2022/05/08 04:34:39;;;;;;;6.70;2.17;;;10.40;58.80;;;;;;4995392;28;20045;-87
2022/05/08 04:37:05;;;;;;;7.35;2.25;;;10.40;58.80;;;;;;4994764;28;20049;-88
2022/05/08 04:39:31;;;;;;;7.63;2.55;;;10.40;58.90;;;;;;4994682;28;20055;-87
2022/05/08 04:41:57;;;;;;;8.27;2.60;;;10.40;58.90;;;;;;4998489;28;20038;-88
2022/05/08 04:44:22;;;;;;;6.93;2.38;;;10.40;59.00;;;;;;4996989;28;20129;-89
2022/05/08 04:46:48;;;;;;;6.13;2.00;;;10.40;59.00;;;;;;4998212;28;20474;-88
2022/05/08 04:49:14;;;;;;;8.48;3.05;;;10.30;59.00;;;;;;4996859;28;20069;-88
2022/05/08 04:51:39;;;;;;;12.57;3.17;;;10.30;59.10;;;;;;4996752;28;20050;-88
2022/05/08 04:54:05;;;;;;;7.63;2.65;;;10.40;59.20;;;;;;4998265;28;20046;-89
2022/05/08 04:56:31;;;;;;;9.50;3.60;;;10.40;59.30;;;;;;4996554;28;20081;-88
2022/05/08 04:58:57;;;;;;;10.07;3.10;;;10.30;59.30;;;;;;4997395;28;20545;-89
2022/05/08 05:01:23;;;;;;;10.00;3.35;;;10.30;59.40;;;;;;4996653;28;20042;-89
2022/05/08 05:03:49;;;;;;;11.55;4.05;;;10.30;59.60;;;;;;4998918;28;20113;-89
2022/05/08 05:06:15;;;;;;;11.90;3.03;;;10.40;60.00;;;;;;4999186;28;20050;-89
2022/05/08 05:08:41;;;;;;;10.75;3.13;;;10.40;60.30;;;;;;4997954;28;20056;-88
2022/05/08 05:11:08;;;;;;;9.98;3.63;;;10.50;60.40;;;;;;4998558;28;20054;-89
2022/05/08 05:13:38;;;;;;;9.80;3.30;;;10.60;60.20;;;;;;4999277;28;20046;-89
2022/05/08 05:16:06;;;;;;;11.45;3.28;;;10.70;60.00;;;;;;4997812;28;20137;-89
2022/05/08 05:18:32;;;;;;;7.80;3.05;;;10.80;59.80;;;;;;4998221;28;20523;-89
2022/05/08 05:20:58;;;;;;;10.23;3.08;;;10.90;59.70;;;;;;4999031;28;20049;-89
2022/05/08 05:23:23;;;;;;;8.80;3.33;;;11.00;59.70;;;;;;4998718;28;20512;-89
2022/05/08 05:25:50;;;;;;;8.80;2.95;;;11.00;59.60;;;;;;5001094;28;20682;-89
2022/05/08 05:28:16;;;;;;;7.63;3.08;;;11.10;59.50;;;;;;4999725;28;20126;-89
2022/05/08 05:30:42;;;;;;;8.85;3.10;;;11.10;59.50;;;;;;5002083;28;20057;-89
2022/05/08 05:33:10;;;;;;;10.07;3.78;;;11.20;59.60;;;;;;5001096;28;20046;-88
2022/05/08 05:35:38;;;;;;;12.43;3.85;;;11.30;59.70;;;;;;5017822;28;20034;-88
2022/05/08 05:38:04;;;;;;;7.53;2.88;;;11.40;59.80;;;;;;5035856;28;20090;-89
2022/05/08 05:40:29;;;;;;;8.30;3.08;;;11.50;59.90;;;;;;5019613;28;20039;-88
2022/05/08 05:42:57;;;;;;;10.20;3.15;;;11.50;59.90;;;;;;5009783;28;20030;-88
2022/05/08 05:45:24;;;;;;;12.35;3.58;;;11.70;59.90;;;;;;5019850;28;20101;-90
2022/05/08 05:47:50;;;;;;;12.13;3.25;;;11.90;59.90;;;;;;5020341;28;20029;-87
2022/05/08 05:50:20;;;;;;;8.93;2.53;;;12.10;59.60;;;;;;5020948;28;20030;-75
2022/05/08 05:52:46;;;;;;;12.07;3.42;;;12.40;59.30;;;;;;5020177;28;20054;-82
2022/05/08 05:55:12;;;;;;;9.50;3.40;;;12.70;58.70;;;;;;5020951;28;20050;-76
2022/05/08 05:57:41;;;;;;;8.73;2.90;;;13.00;58.40;;;;;;5020252;28;20057;-80
2022/05/08 06:00:12;;;;;;;7.78;2.45;;;13.40;57.90;;;;;;5013219;28;20046;-89
2022/05/08 06:05:59;;;;;;;8.35;2.30;;;14.20;56.20;;;;;;5000989;28;20050;-89
2022/05/08 06:08:25;;;;;;;10.52;2.13;;;14.50;55.70;;;;;;5000288;28;20049;-89
2022/05/08 06:10:51;;;;;;;7.20;2.10;;;14.80;54.70;;;;;;5001935;28;20053;-89
2022/05/08 06:13:17;;;;;;;9.18;2.70;;;15.10;54.00;;;;;;5000008;28;20050;-90
2022/05/08 06:15:42;;;;;;;9.20;2.10;;;15.40;53.60;;;;;;4995829;28;20050;-89
2022/05/08 06:18:08;;;;;;;8.00;2.13;;;15.60;52.60;;;;;;4996254;28;20077;-89
2022/05/08 06:20:34;;;;;;;6.55;1.90;;;15.80;51.80;;;;;;4995749;28;20529;-89
2022/05/08 06:23:00;;;;;;;6.22;2.30;;;16.00;51.90;;;;;;4997069;28;20041;-90
2022/05/08 06:25:26;;;;;;;8.77;2.13;;;16.20;51.50;;;;;;4995725;28;20626;-89
2022/05/08 06:27:52;;;;;;;6.90;2.25;;;16.50;51.10;;;;;;4978222;28;20058;-90
2022/05/08 06:30:17;;;;;;;8.43;2.45;;;16.90;50.30;;;;;;4995847;28;20465;-88
2022/05/08 06:32:43;;;;;;;10.23;2.00;;;17.20;49.40;;;;;;5000355;28;20042;-89
2022/05/08 06:35:09;;;;;;;8.90;2.05;;;17.40;48.60;;;;;;4989195;28;20074;-88
2022/05/08 06:37:34;;;;;;;7.97;2.28;;;17.70;47.20;;;;;;4997943;28;20077;-88
2022/05/08 06:40:00;;;;;;;8.88;2.58;;;17.70;46.40;;;;;;5010120;28;20125;-89
2022/05/08 06:42:25;;;;;;;12.05;2.15;;;17.80;46.70;;;;;;4997834;28;20042;-88
2022/05/08 06:44:51;;;;;;;7.53;2.33;;;18.00;46.70;;;;;;4996006;28;20118;-92
2022/05/08 06:47:17;;;;;;;7.70;2.45;;;18.20;46.50;;;;;;4998737;28;20046;-88
2022/05/08 06:49:42;;;;;;;9.32;2.35;;;18.40;46.20;;;;;;5008645;28;20042;-88
2022/05/08 06:52:08;;;;;;;8.18;2.53;;;18.50;45.30;;;;;;5005829;28;20046;-87
2022/05/08 06:54:34;;;;;;;6.95;1.77;;;18.60;45.00;;;;;;4990850;28;20141;-89
2022/05/08 06:56:59;;;;;;;6.28;2.20;;;18.70;44.90;;;;;;5009089;28;20046;-87
2022/05/08 07:02:20;;;;;;;8.07;2.10;;;18.70;43.30;;;;;;4937278;28;20106;-88
2022/05/08 07:04:46;;;;;;;7.38;2.20;;;18.70;43.00;;;;;;4936888;29;20068;-88
2022/05/08 07:07:13;;;;;;;8.48;2.22;;;18.80;43.40;;;;;;4951531;28;20195;-87
2022/05/08 07:09:38;;;;;;;4.15;1.48;;;18.80;43.20;;;;;;4950367;29;20043;-87
2022/05/08 07:12:04;;;;;;;4.60;1.70;;;18.80;42.70;;;;;;4966371;28;20051;-87
2022/05/08 07:14:30;;;;;;;6.93;1.70;;;18.70;42.20;;;;;;4950864;28;20129;-88
2022/05/08 07:16:56;;;;;;;7.63;1.90;;;18.60;41.70;;;;;;4971713;28;20065;-87
2022/05/08 07:19:21;;;;;;;6.18;1.42;;;18.50;41.30;;;;;;4972438;28;20057;-87
2022/05/08 07:21:47;;;;;;;4.82;1.23;;;18.30;41.60;;;;;;4972541;28;20042;-87
2022/05/08 07:24:12;;;;;;;5.57;1.58;;;18.20;42.00;;;;;;4972644;28;20043;-87
2022/05/08 07:26:38;;;;;;;4.90;1.55;;;18.00;42.10;;;;;;4973030;28;20134;-88
2022/05/08 07:29:04;;;;;;;7.03;1.45;;;17.90;42.30;;;;;;4972244;28;20046;-87
2022/05/08 07:31:31;;;;;;;5.38;1.50;;;17.80;42.70;;;;;;4956350;28;20055;-88
2022/05/08 07:36:41;;;;;;;7.95;2.20;;;17.50;43.10;;;;;;4955922;28;20113;-88
2022/05/08 07:39:07;;;;;;;9.95;2.42;;;17.40;43.90;;;;;;4985947;28;20324;-87
2022/05/08 07:41:32;;;;;;;6.32;1.65;;;17.30;43.70;;;;;;4994326;28;20046;-88
2022/05/08 07:43:58;;;;;;;10.13;2.17;;;17.20;44.00;;;;;;4992561;28;20051;-89
2022/05/08 07:46:25;;;;;;;7.72;2.08;;;17.20;44.30;;;;;;4993501;28;20039;-87
2022/05/08 07:48:51;;;;;;;8.02;2.03;;;17.20;43.30;;;;;;4993989;28;20502;-88
2022/05/08 07:51:17;;;;;;;6.68;1.88;;;17.10;43.40;;;;;;4993821;28;20097;-87
2022/05/08 07:53:42;;;;;;;8.52;1.98;;;17.00;43.70;;;;;;4995261;28;20125;-91
2022/05/08 07:56:08;;;;;;;7.07;2.10;;;16.90;43.00;;;;;;4994265;28;20066;-88
2022/05/08 07:58:34;;;;;;;9.63;1.98;;;16.80;43.80;;;;;;4994060;28;20050;-90
2022/05/08 08:01:00;;;;;;;6.30;2.00;;;16.80;44.30;;;;;;4993394;28;20073;-89
2022/05/08 08:03:28;;;;;;;6.65;1.63;;;16.80;43.60;;;;;;4994313;28;20150;-89
2022/05/08 08:05:55;;;;;;;5.07;1.58;;;16.90;44.40;;;;;;4995057;28;20043;-90
2022/05/08 08:08:25;;;;;;;8.05;2.20;;;17.00;44.40;;;;;;4994102;28;20042;-89
2022/05/08 08:10:53;;;;;;;5.55;1.77;;;17.20;43.20;;;;;;4994286;28;20117;-89
2022/05/08 08:13:19;;;;;;;8.55;1.75;;;17.20;43.10;;;;;;4994654;28;20049;-91
2022/05/08 08:15:46;;;;;;;7.88;1.98;;;17.40;43.40;;;;;;4997374;28;20129;-92
2022/05/08 08:18:12;;;;;;;7.78;1.90;;;17.50;43.00;;;;;;5000342;28;20053;-93
2022/05/08 08:20:38;;;;;;;5.95;1.60;;;17.60;42.70;;;;;;4998937;28;20053;-93
2022/05/08 08:23:05;;;;;;;8.20;2.08;;;17.60;42.80;;;;;;4999779;28;20157;-93
2022/05/08 08:25:30;;;;;;;9.93;1.88;;;17.70;42.50;;;;;;4999759;28;20077;-93
2022/05/08 08:27:56;;;;;;;5.75;1.50;;;17.80;43.10;;;;;;4999362;28;20417;-93
2022/05/08 08:30:21;;;;;;;6.07;1.48;;;17.90;43.00;;;;;;4981952;28;20053;-93
2022/05/08 08:32:47;;;;;;;6.03;1.58;;;18.10;42.70;;;;;;4999426;28;20140;-94
2022/05/08 08:35:14;;;;;;;4.28;1.40;;;18.30;42.30;;;;;;5000081;28;20074;-93
2022/05/08 08:37:39;;;;;;;5.47;1.45;;;18.40;42.30;;;;;;5000244;28;20085;-93
2022/05/08 08:40:05;;;;;;;4.20;1.70;;;18.50;42.20;;;;;;5005935;28;20042;-91
2022/05/08 08:42:32;;;;;;;8.90;1.65;;;18.70;42.00;;;;;;5004449;28;20046;-94
2022/05/08 08:47:56;;;;;;;7.63;2.03;;;18.80;41.70;;;;;;4994016;28;20051;-94
2022/05/08 08:50:26;;;;;;;4.85;1.23;;;19.00;40.90;;;;;;4987687;28;20134;-92
2022/05/08 08:53:03;;;;;;;6.55;2.13;;;19.10;41.20;;;;;;5003918;28;20034;-94
2022/05/08 08:55:29;;;;;;;6.43;1.95;;;19.30;39.90;;;;;;4999258;28;20061;-95
2022/05/08 08:57:54;;;;;;;4.38;1.50;;;19.40;39.50;;;;;;4999253;28;20481;-94
2022/05/08 09:00:24;;;;;;;4.72;1.58;;;19.40;39.30;;;;;;5000368;28;20043;-94
2022/05/08 09:02:52;;;;;;;5.65;1.27;;;19.40;40.10;;;;;;5000311;28;20046;-91
2022/05/08 09:05:18;;;;;;;5.75;2.08;;;19.50;40.30;;;;;;5009578;28;20116;-93
2022/05/08 09:07:44;;;;;;;5.82;1.40;;;19.60;40.00;;;;;;5014956;28;20461;-94
2022/05/08 09:10:16;;;;;;;5.47;1.55;;;19.70;39.00;;;;;;5001175;28;20109;-93
2022/05/08 09:12:44;;;;;;;4.90;1.88;;;19.70;38.40;;;;;;5014991;28;20106;-93
2022/05/08 09:15:19;;;;;;;5.72;1.58;;;19.80;38.80;;;;;;5015212;28;20039;-92
2022/05/08 09:17:47;;;;;;;8.77;2.45;;;19.90;38.50;;;;;;5014187;28;20042;-89
2022/05/08 09:20:24;;;;;;;5.65;1.75;;;19.70;38.00;;;;;;4998640;28;20030;-80
2022/05/08 09:23:11;;;;;;;3.90;1.13;;;19.60;39.00;;;;;;5001789;28;20181;-76
2022/05/08 09:25:46;;;;;;;5.40;1.58;;;19.60;40.00;;;;;;4996597;28;20051;-93
2022/05/08 09:28:19;;;;;;;7.32;1.83;;;19.70;40.00;;;;;;4985198;28;20039;-92
2022/05/08 09:31:04;;;;;;;6.40;2.15;;;19.80;39.50;;;;;;4983166;28;20043;-91
2022/05/08 09:33:44;;;;;;;6.55;1.80;;;19.90;39.20;;;;;;4984675;28;20054;-91
2022/05/08 09:36:19;;;;;;;5.82;1.63;;;19.90;38.50;;;;;;5023637;28;20512;-93
2022/05/08 09:38:52;;;;;;;6.22;1.90;;;20.00;39.20;;;;;;5018466;28;20046;-90
2022/05/08 09:41:34;;;;;;;7.67;1.77;;;20.10;38.70;;;;;;5018555;28;20505;-94
2022/05/08 09:44:10;;;;;;;7.63;1.40;;;20.10;38.50;;;;;;5017905;28;20152;-92
2022/05/08 09:50:50;;;;;;;5.82;1.38;;;20.10;38.90;;;;;;4997771;28;20040;-92
2022/05/08 09:53:18;;;;;;;5.72;1.58;;;20.20;38.80;;;;;;4996416;28;20053;-91
2022/05/08 09:55:45;;;;;;;4.00;1.48;;;20.20;38.30;;;;;;4999070;28;20050;-93
2022/05/08 09:58:10;;;;;;;4.25;1.20;;;20.30;36.80;;;;;;4998948;28;20060;-93
2022/05/08 10:00:39;;;;;;;7.00;2.47;;;20.30;36.80;;;;;;5000105;28;20042;-85
2022/05/08 10:03:06;;;;;;;8.48;1.90;;;20.30;36.50;;;;;;5000652;28;20565;-92
2022/05/08 10:05:34;;;;;;;8.27;1.90;;;20.30;36.50;;;;;;4999632;28;20486;-91
2022/05/08 10:08:02;;;;;;;5.38;1.60;;;20.30;36.50;;;;;;4999928;28;20046;-91
2022/05/08 10:15:56;;;;;;;5.32;2.03;;;20.20;36.60;;;;;;4992987;28;20050;-92
2022/05/08 10:18:25;;;;;;;4.82;1.63;;;20.10;35.70;;;;;;4995525;28;20058;-91
2022/05/08 10:21:13;;;;;;;5.78;1.67;;;20.10;36.50;;;;;;4998226;28;20039;-93
2022/05/08 10:23:45;;;;;;;8.73;2.10;;;20.10;35.80;;;;;;4977071;28;20054;-92
2022/05/08 10:26:14;;;;;;;6.82;1.58;;;20.10;36.60;;;;;;4993277;28;20034;-92
2022/05/08 10:29:02;;;;;;;4.22;1.20;;;20.10;36.20;;;;;;4996237;28;20097;-92
2022/05/08 10:32:13;;;;;;;5.57;1.35;;;20.20;37.70;;;;;;4996745;28;20046;-92
2022/05/08 10:34:40;;;;;;;6.60;1.50;;;20.30;36.70;;;;;;4996823;28;20051;-90
2022/05/08 10:37:11;;;;;;;7.18;1.70;;;20.50;36.30;;;;;;4994615;28;20073;-93
2022/05/08 10:39:43;;;;;;;6.97;1.45;;;20.60;35.50;;;;;;4996499;28;20459;-92
2022/05/08 10:42:38;;;;;;;7.15;1.60;;;20.60;36.00;;;;;;4994676;28;20064;-91
2022/05/08 10:45:05;;;;;;;6.47;1.90;;;20.70;36.30;;;;;;4996470;28;20065;-93
2022/05/08 10:47:36;;;;;;;9.60;2.00;;;20.70;36.90;;;;;;4997842;28;20059;-95
2022/05/08 10:50:13;;;;;;;7.20;1.92;;;20.80;37.20;;;;;;4999485;28;20497;-91
2022/05/08 10:52:44;;;;;;;6.70;1.50;;;21.00;36.40;;;;;;4997582;28;20081;-92
2022/05/08 10:55:14;;;;;;;7.00;2.03;;;21.10;36.40;;;;;;4991015;28;20035;-92
2022/05/08 10:57:41;;;;;;;7.18;2.05;;;21.20;36.00;;;;;;4977003;28;20046;-93
2022/05/08 11:00:18;;;;;;;6.60;1.73;;;21.20;35.30;;;;;;4980186;28;20038;-92
2022/05/08 11:07:20;;;;;;;5.30;1.75;;;21.10;36.20;;;;;;4996160;28;20076;-91
2022/05/08 11:09:47;;;;;;;5.40;2.05;;;21.00;35.70;;;;;;4987543;28;20122;-91
2022/05/08 11:12:13;;;;;;;7.22;1.63;;;20.80;35.50;;;;;;4995814;28;20089;-96
2022/05/08 11:14:39;;;;;;;6.32;1.77;;;20.70;35.30;;;;;;4997195;28;20545;-93
2022/05/08 11:17:15;;;;;;;8.45;2.00;;;20.70;35.60;;;;;;4995824;28;20105;-94
2022/05/08 11:19:55;;;;;;;6.57;1.80;;;20.70;35.40;;;;;;4997234;28;20038;-94
2022/05/08 11:22:21;;;;;;;6.68;1.48;;;20.70;35.10;;;;;;4991746;28;20045;-95
2022/05/08 11:24:47;;;;;;;9.40;1.88;;;20.60;35.70;;;;;;4995984;28;20137;-96
2022/05/08 11:27:13;;;;;;;7.38;1.70;;;20.60;35.80;;;;;;4997661;28;20494;-96
2022/05/08 11:29:47;;;;;;;4.97;1.42;;;20.60;35.70;;;;;;4992038;28;20114;-92
2022/05/08 11:36:05;;;;;;;6.78;1.48;;;20.50;35.70;;;;;;4996598;28;20037;-91
2022/05/08 11:38:50;;;;;;;7.68;1.95;;;20.40;35.90;;;;;;4996360;28;20091;-94
2022/05/08 11:41:21;;;;;;;7.30;2.00;;;20.30;35.80;;;;;;4996222;28;20047;-92
2022/05/08 11:43:57;;;;;;;7.15;1.70;;;20.20;35.60;;;;;;4996285;28;20057;-92
2022/05/08 11:46:36;;;;;;;5.95;2.35;;;20.10;36.10;;;;;;5006285;28;20042;-92
2022/05/08 11:49:40;;;;;;;6.03;1.98;;;20.00;37.00;;;;;;5015465;28;20057;-96
2022/05/08 11:52:17;;;;;;;6.80;1.80;;;20.00;36.60;;;;;;5006242;28;20046;-93
2022/05/08 11:55:02;;;;;;;7.40;2.15;;;19.90;37.70;;;;;;4999070;28;20073;-94
2022/05/08 11:57:28;;;;;;;6.72;1.80;;;20.00;37.30;;;;;;4986520;28;20104;-96
2022/05/08 12:00:05;;;;;;;6.53;2.00;;;20.10;36.60;;;;;;5002985;28;20118;-96
2022/05/08 12:06:34;;;;;;;8.27;2.38;;;20.00;37.00;;;;;;5000161;28;20442;-95
2022/05/08 12:09:06;;;;;;;7.15;1.88;;;20.00;36.40;;;;;;5000035;28;20047;-94
2022/05/08 12:11:33;;;;;;;8.55;2.00;;;19.90;34.90;;;;;;4999726;28;20096;-92
2022/05/08 12:14:10;;;;;;;8.55;2.50;;;19.80;35.40;;;;;;4982675;28;20471;-93
2022/05/08 12:16:35;;;;;;;11.50;2.30;;;19.80;36.30;;;;;;4995067;28;20073;-91
2022/05/08 12:19:15;;;;;;;7.78;2.53;;;19.60;36.40;;;;;;4999068;28;20441;-89
2022/05/08 12:21:43;;;;;;;7.10;1.73;;;19.60;36.40;;;;;;5004225;28;20819;-90
2022/05/08 12:24:14;;;;;;;7.20;2.13;;;19.50;37.50;;;;;;5010140;28;20053;-90
2022/05/08 12:26:41;;;;;;;6.68;1.60;;;19.50;37.40;;;;;;4980637;28;20047;-88
2022/05/08 12:29:15;;;;;;;7.22;2.30;;;19.50;37.20;;;;;;4995318;28;20049;-89
2022/05/08 12:31:41;;;;;;;8.45;2.45;;;19.60;36.80;;;;;;4980777;28;20042;-88
2022/05/08 12:34:09;;;;;;;9.05;1.77;;;19.60;37.00;;;;;;4979376;28;20089;-89
2022/05/08 12:36:35;;;;;;;10.57;1.63;;;19.60;37.30;;;;;;4979885;28;20045;-89
2022/05/08 12:39:00;;;;;;;5.43;1.80;;;19.70;36.90;;;;;;4979544;28;20429;-89
2022/05/08 12:41:26;;;;;;;6.78;1.75;;;19.70;37.00;;;;;;4994300;28;20046;-88
2022/05/08 12:43:51;;;;;;;5.15;1.65;;;19.70;37.30;;;;;;4984433;28;20038;-90
2022/05/08 12:46:17;;;;;;;8.82;2.22;;;19.80;37.20;;;;;;4980152;28;20482;-92
2022/05/08 12:48:42;;;;;;;8.07;2.08;;;19.80;37.30;;;;;;4980766;28;20134;-94
2022/05/08 12:51:08;;;;;;;6.43;1.58;;;19.90;37.30;;;;;;4982172;28;20055;-89
2022/05/08 12:53:35;;;;;;;5.53;1.70;;;20.00;36.50;;;;;;4986841;28;20046;-92
2022/05/08 12:56:01;;;;;;;7.53;1.80;;;20.00;36.70;;;;;;4994350;28;20478;-91
2022/05/08 13:01:11;;;;;;;7.10;1.92;;;20.10;36.70;;;;;;4985017;28;20053;-91
2022/05/08 13:03:37;;;;;;;9.30;2.00;;;20.20;35.80;;;;;;5000229;28;20466;-93
2022/05/08 13:06:03;;;;;;;8.32;2.25;;;20.20;36.00;;;;;;5007551;28;20042;-92
2022/05/08 13:08:29;;;;;;;9.68;2.47;;;20.10;36.00;;;;;;5001377;28;20108;-91
2022/05/08 13:10:54;;;;;;;8.23;2.08;;;20.10;35.80;;;;;;5019652;28;20045;-93
2022/05/08 13:13:20;;;;;;;7.15;2.25;;;20.10;36.70;;;;;;5000810;28;20054;-94
2022/05/08 13:15:46;;;;;;;5.10;1.77;;;20.20;36.80;;;;;;4999916;28;20042;-91
2022/05/08 13:18:12;;;;;;;7.70;1.98;;;20.30;36.90;;;;;;4999733;28;20050;-92
2022/05/08 13:20:38;;;;;;;9.23;1.90;;;20.40;36.30;;;;;;4998688;28;20050;-91
2022/05/08 13:23:04;;;;;;;9.73;2.67;;;20.40;35.60;;;;;;4999429;28;20062;-92
2022/05/08 13:25:30;;;;;;;7.25;1.75;;;20.50;35.70;;;;;;5000055;28;20041;-91
2022/05/08 13:27:56;;;;;;;5.18;2.00;;;20.50;35.20;;;;;;5000223;28;20050;-93
2022/05/08 13:30:21;;;;;;;5.38;1.88;;;20.60;35.50;;;;;;5003403;28;20450;-93
2022/05/08 13:33:06;;;;;;;6.55;1.60;;;20.60;35.10;;;;;;5006802;28;20501;-93